Time;durP1;ratioP1;P1;durP2;ratioP2;P2;SDS_P1;SDS_P2;PMS_P1;PMS_P2;Temp;Humidity;BMP_temperature;BMP_pressure;BME280_temperature;BME280_humidity;BME280_pressure;Samples;Min_cycle;Max_cycle;Signal;HPM_P1;HPM_P2
2021/01/14 00:01:33;;;;;;;32.13;16.70;;;-1.20;99.90;;;;;;4976940;28;20037;-80
2021/01/14 00:03:59;;;;;;;33.72;17.95;;;-1.20;99.90;;;;;;4975633;28;20030;-79
2021/01/14 00:06:25;;;;;;;32.03;16.55;;;-1.20;99.90;;;;;;4976684;28;20370;-81
2021/01/14 00:08:51;;;;;;;30.38;15.75;;;-1.20;99.90;;;;;;4976706;28;20086;-79
2021/01/14 00:11:16;;;;;;;31.42;16.77;;;-1.20;99.90;;;;;;4976653;28;20082;-80
2021/01/14 00:13:42;;;;;;;35.13;16.67;;;-1.30;99.90;;;;;;4987622;28;20035;-79
2021/01/14 00:16:07;;;;;;;31.50;15.07;;;-1.20;99.90;;;;;;4995526;28;20037;-80
2021/01/14 00:18:33;;;;;;;33.78;15.70;;;-1.30;99.90;;;;;;4995967;28;20088;-79
2021/01/14 00:20:59;;;;;;;42.15;19.33;;;-1.30;99.90;;;;;;4994934;28;20022;-81
2021/01/14 00:23:25;;;;;;;32.33;16.15;;;-1.20;99.90;;;;;;4988292;28;20019;-79
2021/01/14 00:25:51;;;;;;;40.97;16.48;;;-1.20;99.90;;;;;;4975789;28;20019;-80
2021/01/14 00:28:16;;;;;;;44.22;17.77;;;-1.20;99.90;;;;;;4975718;28;20038;-79
2021/01/14 00:30:42;;;;;;;34.92;17.77;;;-1.20;99.90;;;;;;4976280;28;20030;-80
2021/01/14 00:33:07;;;;;;;34.97;15.95;;;-1.20;99.90;;;;;;4975950;28;20579;-79
2021/01/14 00:35:33;;;;;;;37.03;16.88;;;-1.20;99.90;;;;;;4975365;28;20033;-81
2021/01/14 00:38:00;;;;;;;40.97;17.60;;;-1.20;99.90;;;;;;4976152;28;20441;-79
2021/01/14 00:40:31;;;;;;;36.80;16.77;;;-1.20;99.90;;;;;;4976075;28;20019;-79
2021/01/14 00:43:00;;;;;;;33.60;16.67;;;-1.20;99.90;;;;;;4981408;28;20030;-79
2021/01/14 00:45:30;;;;;;;34.55;16.33;;;-1.20;99.90;;;;;;4995141;28;20046;-79
2021/01/14 00:47:56;;;;;;;37.25;15.15;;;-1.20;99.90;;;;;;4995044;28;20026;-79
2021/01/14 00:50:22;;;;;;;38.20;15.65;;;-1.20;99.90;;;;;;4995417;28;20023;-80
2021/01/14 00:52:49;;;;;;;35.58;16.58;;;-1.20;99.90;;;;;;4995366;28;20092;-79
2021/01/14 00:55:18;;;;;;;33.97;15.55;;;-1.20;99.90;;;;;;4993480;28;20369;-80
2021/01/14 00:57:45;;;;;;;32.67;16.23;;;-1.20;99.90;;;;;;4993197;28;20026;-79
2021/01/14 01:00:13;;;;;;;32.80;15.75;;;-1.20;99.90;;;;;;4995017;28;20437;-80
2021/01/14 01:02:43;;;;;;;35.63;15.68;;;-1.10;99.90;;;;;;4995279;28;20033;-79
2021/01/14 01:05:10;;;;;;;32.92;15.95;;;-1.10;99.90;;;;;;4994661;28;20053;-79
2021/01/14 01:07:35;;;;;;;35.05;16.83;;;-1.10;99.90;;;;;;4994438;28;20499;-80
2021/01/14 01:10:02;;;;;;;31.77;16.40;;;-1.10;99.90;;;;;;4994203;28;20035;-80
2021/01/14 01:12:28;;;;;;;31.30;14.55;;;-1.10;99.90;;;;;;4991645;28;20521;-80
2021/01/14 01:14:53;;;;;;;34.63;14.98;;;-1.10;99.90;;;;;;4974879;28;20094;-79
2021/01/14 01:17:19;;;;;;;33.95;15.13;;;-1.10;99.90;;;;;;4974987;28;20034;-79
2021/01/14 01:19:44;;;;;;;33.10;16.17;;;-1.10;99.90;;;;;;4975191;28;20030;-79
2021/01/14 01:22:10;;;;;;;33.80;15.30;;;-1.10;99.90;;;;;;4975134;28;20027;-80
2021/01/14 01:24:36;;;;;;;32.45;14.57;;;-1.10;99.90;;;;;;4974592;28;20026;-79
2021/01/14 01:27:02;;;;;;;28.45;15.38;;;-1.20;99.90;;;;;;4975244;28;20035;-81
2021/01/14 01:29:27;;;;;;;32.85;16.55;;;-1.10;99.90;;;;;;4974528;28;20102;-79
2021/01/14 01:31:53;;;;;;;34.80;17.00;;;-1.10;99.90;;;;;;4974501;28;20030;-80
2021/01/14 01:34:18;;;;;;;31.88;16.63;;;-1.10;99.90;;;;;;4973961;28;20378;-79
2021/01/14 01:36:50;;;;;;;30.95;14.50;;;-1.20;99.90;;;;;;4975102;28;20026;-80
2021/01/14 01:39:16;;;;;;;37.67;17.30;;;-1.20;99.90;;;;;;4973672;28;20187;-79
2021/01/14 01:41:41;;;;;;;31.77;17.15;;;-1.20;99.90;;;;;;4975022;28;20125;-80
2021/01/14 01:44:07;;;;;;;31.50;15.73;;;-1.10;99.90;;;;;;4988293;28;20034;-79
2021/01/14 01:46:33;;;;;;;27.45;16.02;;;-1.20;99.90;;;;;;4994284;28;20109;-80
2021/01/14 01:48:59;;;;;;;29.60;15.32;;;-1.20;99.90;;;;;;4993407;28;20536;-79
2021/01/14 01:51:31;;;;;;;29.98;15.98;;;-1.20;99.90;;;;;;4994319;28;20037;-79
2021/01/14 01:53:58;;;;;;;33.83;17.15;;;-1.20;99.90;;;;;;4993576;28;20065;-79
2021/01/14 01:56:24;;;;;;;29.67;14.10;;;-1.20;99.90;;;;;;4994095;28;20500;-80
2021/01/14 01:58:55;;;;;;;36.40;16.55;;;-1.20;99.90;;;;;;4993942;28;20029;-79
2021/01/14 02:01:22;;;;;;;34.83;16.17;;;-1.20;99.90;;;;;;4993471;28;20029;-79
2021/01/14 02:03:48;;;;;;;29.52;15.27;;;-1.20;99.90;;;;;;4993572;28;20089;-79
2021/01/14 02:06:14;;;;;;;31.70;14.88;;;-1.20;99.90;;;;;;4993836;28;20468;-81
2021/01/14 02:08:49;;;;;;;35.25;16.92;;;-1.20;99.90;;;;;;4993961;28;20026;-80
2021/01/14 02:11:32;;;;;;;31.02;14.63;;;-1.20;99.90;;;;;;4985459;28;20085;-79
2021/01/14 02:14:19;;;;;;;31.65;15.05;;;-1.20;99.90;;;;;;4973553;28;20049;-79
2021/01/14 02:16:45;;;;;;;30.13;15.10;;;-1.10;99.90;;;;;;4974208;28;20106;-79
2021/01/14 02:19:25;;;;;;;30.58;14.80;;;-1.20;99.90;;;;;;4974324;28;20473;-79
2021/01/14 02:21:57;;;;;;;30.55;14.82;;;-1.20;99.90;;;;;;4973963;28;20019;-79
2021/01/14 02:24:36;;;;;;;36.47;15.07;;;-1.20;99.90;;;;;;4974118;28;20026;-79
2021/01/14 02:27:03;;;;;;;27.80;13.77;;;-1.20;99.90;;;;;;4974272;28;20476;-79
2021/01/14 02:29:29;;;;;;;29.25;14.27;;;-1.20;99.90;;;;;;4974197;28;20037;-79
2021/01/14 02:31:55;;;;;;;28.23;14.60;;;-1.20;99.90;;;;;;4980690;28;20109;-80
2021/01/14 02:34:20;;;;;;;33.33;16.60;;;-1.30;99.90;;;;;;4993021;28;20049;-80
2021/01/14 02:36:46;;;;;;;27.80;16.00;;;-1.30;99.90;;;;;;4993441;28;20126;-80
2021/01/14 02:39:12;;;;;;;28.65;14.93;;;-1.30;99.90;;;;;;4993382;28;20022;-79
2021/01/14 02:41:37;;;;;;;32.60;14.95;;;-1.30;99.90;;;;;;4991756;28;20030;-79
2021/01/14 02:44:03;;;;;;;31.10;14.68;;;-1.30;99.90;;;;;;4991285;28;20431;-79
2021/01/14 02:46:30;;;;;;;27.80;14.90;;;-1.20;99.90;;;;;;4993287;28;20042;-80
2021/01/14 02:49:09;;;;;;;29.77;15.65;;;-1.20;99.90;;;;;;4993267;28;20492;-79
2021/01/14 02:51:51;;;;;;;31.67;13.65;;;-1.20;99.90;;;;;;4990585;28;20435;-80
2021/01/14 02:54:17;;;;;;;25.73;14.20;;;-1.20;99.90;;;;;;4992650;28;20109;-79
2021/01/14 02:56:47;;;;;;;35.70;16.15;;;-1.20;99.90;;;;;;4991506;28;20126;-80
2021/01/14 02:59:13;;;;;;;33.58;15.18;;;-1.20;99.90;;;;;;4993565;28;20033;-79
2021/01/14 03:01:39;;;;;;;27.73;14.32;;;-1.20;99.90;;;;;;4993340;28;20018;-80
2021/01/14 03:04:05;;;;;;;34.13;16.58;;;-1.20;99.90;;;;;;4992038;28;20023;-80
2021/01/14 03:06:31;;;;;;;28.17;15.15;;;-1.20;99.90;;;;;;4993253;28;20426;-80
2021/01/14 03:08:56;;;;;;;27.00;14.65;;;-1.20;99.90;;;;;;4993250;28;20423;-79
2021/01/14 03:11:26;;;;;;;27.52;15.30;;;-1.20;99.90;;;;;;4993373;28;20149;-80
2021/01/14 03:13:52;;;;;;;30.63;15.32;;;-1.20;99.90;;;;;;4991970;28;20483;-79
2021/01/14 03:16:17;;;;;;;29.75;15.13;;;-1.20;99.90;;;;;;4993154;28;20033;-79
2021/01/14 03:18:44;;;;;;;34.08;16.35;;;-1.20;99.90;;;;;;5011206;28;20051;-79
2021/01/14 03:21:09;;;;;;;28.88;14.45;;;-1.20;99.90;;;;;;5004084;28;20022;-80
2021/01/14 03:23:35;;;;;;;27.25;14.90;;;-1.20;99.90;;;;;;4992114;28;20061;-80
2021/01/14 03:26:01;;;;;;;29.70;14.32;;;-1.20;99.90;;;;;;4993033;28;20058;-80
2021/01/14 03:28:26;;;;;;;30.65;15.70;;;-1.20;99.90;;;;;;5008256;28;20138;-79
2021/01/14 03:30:53;;;;;;;28.70;15.32;;;-1.20;99.90;;;;;;4992629;28;20026;-81
2021/01/14 03:33:19;;;;;;;31.38;14.73;;;-1.20;99.90;;;;;;4992514;28;20038;-79
2021/01/14 03:35:45;;;;;;;31.65;14.45;;;-1.20;99.90;;;;;;4992473;28;20478;-79
2021/01/14 03:38:11;;;;;;;35.25;17.25;;;-1.20;99.90;;;;;;4992821;28;20023;-79
2021/01/14 03:40:36;;;;;;;26.13;13.27;;;-1.20;99.90;;;;;;4992964;28;20026;-79
2021/01/14 03:43:02;;;;;;;32.08;15.15;;;-1.20;99.90;;;;;;4992766;28;20054;-79
2021/01/14 03:45:28;;;;;;;29.73;14.10;;;-1.20;99.90;;;;;;4991074;28;20088;-80
2021/01/14 03:47:53;;;;;;;29.15;16.10;;;-1.20;99.90;;;;;;4991588;28;20440;-79
2021/01/14 03:50:19;;;;;;;35.38;16.05;;;-1.20;99.90;;;;;;4992789;28;20105;-80
2021/01/14 03:52:45;;;;;;;30.67;14.25;;;-1.20;99.90;;;;;;4976241;28;20046;-79
2021/01/14 03:55:11;;;;;;;35.35;15.43;;;-1.20;99.90;;;;;;4972199;28;20388;-80
2021/01/14 03:57:36;;;;;;;30.25;13.90;;;-1.20;99.90;;;;;;4973297;28;20027;-80
2021/01/14 04:00:07;;;;;;;33.67;15.15;;;-1.20;99.90;;;;;;4973236;28;20388;-80
2021/01/14 04:02:32;;;;;;;33.60;16.42;;;-1.20;99.90;;;;;;4972642;28;20058;-79
2021/01/14 04:04:58;;;;;;;34.03;15.70;;;-1.20;99.90;;;;;;4976221;28;20120;-79
2021/01/14 04:07:24;;;;;;;28.60;15.43;;;-1.20;99.90;;;;;;4976042;28;20026;-81
2021/01/14 04:09:50;;;;;;;26.83;14.80;;;-1.20;99.90;;;;;;4976727;28;20030;-79
2021/01/14 04:12:16;;;;;;;26.48;13.35;;;-1.20;99.90;;;;;;4976659;28;20046;-79
2021/01/14 04:14:50;;;;;;;32.70;16.98;;;-1.20;99.90;;;;;;4976044;28;20023;-79
2021/01/14 04:17:16;;;;;;;29.80;16.30;;;-1.20;99.90;;;;;;4991180;28;20443;-79
2021/01/14 04:19:42;;;;;;;32.42;16.83;;;-1.20;99.90;;;;;;4976420;28;20448;-80
2021/01/14 04:22:07;;;;;;;27.60;14.00;;;-1.20;99.90;;;;;;4992614;28;20066;-79
2021/01/14 04:24:36;;;;;;;23.40;13.93;;;-1.20;99.90;;;;;;4975996;28;20038;-79
2021/01/14 04:27:04;;;;;;;33.03;15.18;;;-1.20;99.90;;;;;;4975685;28;20109;-79
2021/01/14 04:29:30;;;;;;;30.08;15.18;;;-1.20;99.90;;;;;;4976310;28;20074;-79
2021/01/14 04:31:55;;;;;;;26.98;13.95;;;-1.20;99.90;;;;;;4976224;28;20461;-80
2021/01/14 04:34:21;;;;;;;27.48;14.32;;;-1.20;99.90;;;;;;4975640;28;20034;-80
2021/01/14 04:36:47;;;;;;;28.75;14.43;;;-1.20;99.90;;;;;;4975973;28;20015;-81
2021/01/14 04:39:13;;;;;;;29.95;15.30;;;-1.20;99.90;;;;;;4975940;28;20023;-79
2021/01/14 04:41:48;;;;;;;27.23;14.70;;;-1.20;99.90;;;;;;4976198;28;20066;-81
2021/01/14 04:44:14;;;;;;;27.02;14.55;;;-1.30;99.90;;;;;;4990690;28;20073;-79
2021/01/14 04:46:48;;;;;;;30.35;15.85;;;-1.20;99.90;;;;;;4976125;28;20019;-80
2021/01/14 04:49:16;;;;;;;40.97;17.15;;;-1.30;99.90;;;;;;4973949;28;20387;-79
2021/01/14 04:51:44;;;;;;;35.47;17.77;;;-1.30;99.90;;;;;;4985502;28;20022;-80
2021/01/14 04:54:15;;;;;;;46.95;20.75;;;-1.30;99.90;;;;;;4994958;28;20030;-79
2021/01/14 04:56:46;;;;;;;45.70;22.17;;;-1.30;99.90;;;;;;4995472;28;20494;-79
2021/01/14 07:53:26;;;;;;;32.38;15.93;;;-1.00;99.90;;;;;;4939770;28;20070;-79
2021/01/14 07:55:53;;;;;;;27.13;14.65;;;-1.00;99.90;;;;;;4978835;28;20134;-79
2021/01/14 07:58:20;;;;;;;22.13;12.70;;;-0.90;99.90;;;;;;4976253;28;20115;-79
2021/01/14 08:01:01;;;;;;;29.02;18.02;;;-0.90;99.90;;;;;;4976881;28;20018;-80
2021/01/14 08:03:34;;;;;;;19.00;9.82;;;-0.80;99.90;;;;;;4983750;28;20014;-80
2021/01/14 08:06:22;;;;;;;24.75;12.30;;;-0.90;99.90;;;;;;4976875;28;20031;-79
2021/01/14 08:09:02;;;;;;;19.75;12.63;;;-0.80;99.90;;;;;;4975873;28;20023;-80
2021/01/14 08:11:33;;;;;;;19.25;10.70;;;-0.90;99.90;;;;;;4981129;28;20037;-80
2021/01/14 08:14:20;;;;;;;19.63;12.88;;;-0.80;99.90;;;;;;4993990;28;20034;-79
2021/01/14 08:17:21;;;;;;;23.85;11.20;;;-0.80;99.90;;;;;;4995125;28;20022;-80
2021/01/14 08:19:47;;;;;;;25.67;12.93;;;-0.90;99.90;;;;;;4994785;28;20030;-80
2021/01/14 08:22:13;;;;;;;19.40;12.07;;;-0.80;99.90;;;;;;4993944;28;20029;-80
2021/01/14 08:24:44;;;;;;;16.70;10.35;;;-0.80;99.90;;;;;;4994107;28;20118;-79
2021/01/14 08:27:11;;;;;;;21.92;12.35;;;-0.80;99.90;;;;;;4989630;28;20089;-80
2021/01/14 08:29:41;;;;;;;19.83;10.98;;;-0.80;99.90;;;;;;4989120;28;20052;-80
2021/01/14 08:32:25;;;;;;;20.92;11.10;;;-0.80;99.90;;;;;;4993980;28;20109;-80
2021/01/14 08:34:53;;;;;;;23.33;12.02;;;-0.80;99.90;;;;;;4978014;28;20050;-79
2021/01/14 08:37:34;;;;;;;36.50;16.55;;;-0.80;99.90;;;;;;5008135;28;20017;-79
2021/01/14 08:40:15;;;;;;;29.20;13.77;;;-0.70;99.90;;;;;;4987332;28;20477;-79
2021/01/14 08:42:46;;;;;;;27.90;13.43;;;-0.70;99.90;;;;;;4976790;28;20317;-79
2021/01/14 08:45:19;;;;;;;19.35;12.65;;;-0.70;99.90;;;;;;4990677;28;20318;-79
2021/01/14 08:47:51;;;;;;;21.33;12.52;;;-0.70;99.90;;;;;;4973798;28;20050;-79
2021/01/14 08:50:37;;;;;;;20.38;11.25;;;-0.70;99.90;;;;;;4988806;28;20026;-79
2021/01/14 08:53:11;;;;;;;22.65;11.88;;;-0.80;99.90;;;;;;4986424;28;20404;-79
2021/01/14 08:55:39;;;;;;;21.88;14.02;;;-0.80;99.90;;;;;;4981964;28;20034;-79
2021/01/14 08:58:07;;;;;;;18.25;11.20;;;-0.80;99.90;;;;;;4989949;28;20076;-79
2021/01/14 09:00:34;;;;;;;23.85;13.23;;;-0.80;99.90;;;;;;4992950;28;20030;-79
2021/01/14 09:03:00;;;;;;;22.77;12.13;;;-0.80;99.90;;;;;;4992341;28;20109;-79
2021/01/14 09:05:28;;;;;;;26.27;13.40;;;-0.70;99.90;;;;;;4992016;28;20034;-80
2021/01/14 09:08:04;;;;;;;25.35;13.65;;;-0.70;99.90;;;;;;4992954;28;20050;-79
2021/01/14 09:10:45;;;;;;;22.35;12.55;;;-0.70;99.90;;;;;;4993206;28;20105;-79
2021/01/14 09:13:12;;;;;;;29.38;16.50;;;-0.70;99.90;;;;;;4993070;28;20435;-79
2021/01/14 09:15:38;;;;;;;29.45;14.20;;;-0.60;99.90;;;;;;4993167;28;20110;-80
2021/01/14 09:18:04;;;;;;;24.20;13.20;;;-0.50;99.90;;;;;;4988418;28;20030;-80
2021/01/14 09:20:30;;;;;;;29.20;14.07;;;-0.30;99.90;;;;;;4996255;28;20036;-80
2021/01/14 09:23:17;;;;;;;27.60;14.13;;;-0.20;99.90;;;;;;4992894;28;20026;-79
2021/01/14 09:25:45;;;;;;;26.85;11.70;;;-0.30;99.90;;;;;;4988967;28;20034;-80
2021/01/14 09:28:11;;;;;;;26.38;13.45;;;-0.30;99.90;;;;;;4992604;28;20111;-79
2021/01/14 09:30:37;;;;;;;26.45;12.63;;;-0.30;99.90;;;;;;4983636;28;20015;-80
2021/01/14 09:33:03;;;;;;;26.58;12.85;;;-0.20;99.90;;;;;;4991125;28;20038;-80
2021/01/14 09:35:29;;;;;;;27.55;13.85;;;-0.20;99.90;;;;;;4992316;28;20084;-79
2021/01/14 09:37:55;;;;;;;25.67;13.98;;;-0.30;99.90;;;;;;5005834;28;20484;-80
2021/01/14 09:40:21;;;;;;;19.35;11.32;;;-0.40;99.90;;;;;;4992776;28;20065;-80
2021/01/14 09:42:50;;;;;;;25.67;12.65;;;-0.40;99.90;;;;;;4990410;28;20049;-79
2021/01/14 09:45:20;;;;;;;24.98;13.40;;;-0.40;99.90;;;;;;4989769;28;20372;-79
2021/01/14 09:47:50;;;;;;;28.15;15.10;;;-0.40;99.90;;;;;;4988063;28;20027;-79
2021/01/14 09:50:16;;;;;;;23.88;11.65;;;-0.40;99.90;;;;;;4989399;28;20030;-79
2021/01/14 09:52:45;;;;;;;26.23;12.73;;;-0.40;99.90;;;;;;4991849;28;20033;-79
2021/01/14 09:55:14;;;;;;;26.65;11.55;;;-0.40;99.90;;;;;;4992262;28;20510;-79
2021/01/14 09:57:53;;;;;;;25.63;12.93;;;-0.30;99.90;;;;;;4993671;28;20018;-80
2021/01/14 10:00:25;;;;;;;23.92;13.38;;;-0.20;99.90;;;;;;4992614;28;20026;-80
2021/01/14 10:03:00;;;;;;;25.17;12.13;;;-0.30;99.90;;;;;;4979236;28;20485;-79
2021/01/14 10:05:26;;;;;;;23.77;13.20;;;-0.30;99.90;;;;;;4974038;28;20117;-80
2021/01/14 10:08:00;;;;;;;28.55;13.57;;;-0.20;99.90;;;;;;4974214;28;20022;-79
2021/01/14 10:10:29;;;;;;;29.65;14.63;;;-0.20;99.90;;;;;;4974319;28;20088;-79
2021/01/14 10:12:55;;;;;;;32.05;15.85;;;-0.30;99.90;;;;;;4973808;28;20038;-79
2021/01/14 10:15:21;;;;;;;24.98;15.00;;;-0.20;99.90;;;;;;4974049;28;20026;-79
2021/01/14 10:17:47;;;;;;;24.42;14.25;;;-0.20;99.90;;;;;;4973913;28;20045;-79
2021/01/14 10:20:13;;;;;;;29.90;15.88;;;-0.10;99.90;;;;;;4973891;28;20117;-80
2021/01/14 10:22:51;;;;;;;38.67;17.92;;;0.10;99.90;;;;;;4973549;28;20031;-81
2021/01/14 10:25:17;;;;;;;30.75;16.20;;;0.10;99.90;;;;;;4974848;28;20027;-80
2021/01/14 10:27:59;;;;;;;33.65;17.63;;;0.00;99.90;;;;;;4973811;28;20038;-79
2021/01/14 10:30:25;;;;;;;37.67;17.75;;;0.10;99.90;;;;;;4987772;28;20030;-80
2021/01/14 10:32:59;;;;;;;36.33;18.48;;;0.20;99.90;;;;;;5007947;28;20084;-79
2021/01/14 10:35:30;;;;;;;29.83;15.40;;;0.20;99.90;;;;;;4992998;28;20026;-80
2021/01/14 10:38:15;;;;;;;32.30;15.93;;;0.10;99.90;;;;;;4993194;28;20014;-79
2021/01/14 10:40:42;;;;;;;45.70;20.83;;;0.00;99.90;;;;;;4992767;28;20026;-79
2021/01/14 10:43:09;;;;;;;35.30;17.73;;;-0.20;99.90;;;;;;4992802;28;20061;-80
2021/01/14 10:45:37;;;;;;;41.35;20.50;;;-0.20;99.90;;;;;;4992769;28;20444;-80
2021/01/14 10:48:10;;;;;;;41.65;18.92;;;-0.20;99.90;;;;;;4990499;28;20400;-80
2021/01/14 10:50:47;;;;;;;43.20;18.30;;;-0.10;99.90;;;;;;4995377;28;20026;-79
2021/01/14 10:53:23;;;;;;;42.40;21.02;;;0.00;99.90;;;;;;5005300;28;20038;-79
2021/01/14 10:56:02;;;;;;;48.13;23.20;;;0.00;99.90;;;;;;5007376;28;20034;-80
2021/01/14 10:58:27;;;;;;;42.60;20.98;;;0.10;99.90;;;;;;4991354;28;20023;-79
2021/01/14 11:00:54;;;;;;;49.72;22.02;;;0.00;99.90;;;;;;4991261;28;20443;-80
2021/01/14 11:03:25;;;;;;;38.85;19.33;;;0.00;99.90;;;;;;4991409;28;20026;-80
2021/01/14 11:05:58;;;;;;;42.10;19.30;;;0.10;99.90;;;;;;4991002;28;20080;-80
2021/01/14 11:08:25;;;;;;;54.53;28.23;;;-0.10;99.90;;;;;;4991012;28;20448;-79
2021/01/14 11:11:14;;;;;;;47.90;21.50;;;-0.20;99.90;;;;;;4988835;28;20022;-78
2021/01/14 11:13:42;;;;;;;52.17;24.70;;;-0.20;99.90;;;;;;4977293;28;20520;-79
2021/01/14 11:16:11;;;;;;;51.78;23.25;;;-0.30;99.90;;;;;;4984132;28;20085;-78
2021/01/14 11:18:38;;;;;;;38.88;18.45;;;-0.20;99.90;;;;;;4995918;28;20034;-78
2021/01/14 11:21:04;;;;;;;35.10;18.90;;;-0.30;99.90;;;;;;4978047;28;20389;-79
2021/01/14 11:23:30;;;;;;;45.13;18.77;;;-0.20;99.90;;;;;;4976302;28;20042;-80
2021/01/14 11:25:56;;;;;;;41.92;20.40;;;-0.20;99.90;;;;;;4980627;28;20030;-79
2021/01/14 11:28:21;;;;;;;45.67;21.15;;;-0.10;99.90;;;;;;4994503;28;20076;-79
2021/01/14 11:30:47;;;;;;;36.03;19.13;;;0.00;99.90;;;;;;4994136;28;20488;-80
2021/01/14 11:33:13;;;;;;;33.58;17.38;;;0.00;99.90;;;;;;4995568;28;20046;-79
2021/01/14 11:35:38;;;;;;;32.30;16.80;;;-0.10;99.90;;;;;;4996052;28;20487;-80
2021/01/14 11:38:04;;;;;;;33.65;17.20;;;-0.10;99.90;;;;;;4994635;28;20049;-79
2021/01/14 11:40:30;;;;;;;37.10;20.08;;;-0.20;99.90;;;;;;4995038;28;20062;-80
2021/01/14 11:42:55;;;;;;;58.70;28.67;;;-0.20;99.90;;;;;;4994818;28;20093;-79
2021/01/14 11:45:21;;;;;;;49.28;23.85;;;-0.20;99.90;;;;;;4993601;28;20029;-80
2021/01/14 11:47:47;;;;;;;35.33;15.90;;;-0.20;99.90;;;;;;4995408;28;20056;-79
2021/01/14 11:50:13;;;;;;;31.45;15.10;;;-0.30;99.90;;;;;;4994450;28;20026;-80
2021/01/14 11:52:38;;;;;;;30.52;15.70;;;-0.30;99.90;;;;;;4993323;28;20101;-80
2021/01/14 11:55:04;;;;;;;25.42;13.15;;;-0.30;99.90;;;;;;4991908;28;20026;-80
2021/01/14 11:57:30;;;;;;;29.38;15.32;;;-0.20;99.90;;;;;;4993510;28;20030;-80
2021/01/14 11:59:56;;;;;;;45.90;19.05;;;-0.40;99.90;;;;;;4992577;28;20084;-79
2021/01/14 12:02:22;;;;;;;24.05;13.00;;;-0.40;99.90;;;;;;4994709;28;20045;-80
2021/01/14 12:04:47;;;;;;;24.40;11.68;;;-0.50;99.90;;;;;;4995328;28;20033;-79
2021/01/14 12:07:13;;;;;;;21.73;11.85;;;-0.60;99.90;;;;;;4994684;28;20411;-81
2021/01/14 12:09:40;;;;;;;23.10;11.38;;;-0.70;99.90;;;;;;4993052;28;20030;-79
2021/01/14 12:12:06;;;;;;;24.48;13.20;;;-0.80;99.90;;;;;;4991422;28;20029;-80
2021/01/14 12:14:32;;;;;;;57.97;21.70;;;-0.80;99.90;;;;;;4990613;28;20050;-79
2021/01/14 12:16:58;;;;;;;68.15;27.70;;;-0.80;99.90;;;;;;4990180;28;20506;-80
2021/01/14 12:19:24;;;;;;;40.88;18.73;;;-0.80;99.90;;;;;;4991478;28;20080;-80
2021/01/14 12:22:05;;;;;;;61.38;24.27;;;-0.80;99.90;;;;;;4992719;28;20053;-80
2021/01/14 12:24:31;;;;;;;33.25;14.50;;;-0.90;99.90;;;;;;4992076;28;20049;-79
2021/01/14 12:26:57;;;;;;;31.33;11.05;;;-0.70;99.90;;;;;;4992593;28;20030;-81
2021/01/14 12:29:23;;;;;;;29.58;14.05;;;-0.60;99.90;;;;;;5008910;28;20376;-80
2021/01/14 12:31:50;;;;;;;28.83;14.43;;;-0.50;99.90;;;;;;4999449;28;20030;-79
2021/01/14 12:34:15;;;;;;;53.28;19.08;;;-0.50;99.90;;;;;;5003437;28;20034;-80
2021/01/14 12:36:41;;;;;;;167.38;56.63;;;-0.50;99.90;;;;;;4993180;28;20480;-80
2021/01/14 12:39:07;;;;;;;42.58;20.35;;;-0.50;99.90;;;;;;4992392;28;20037;-79
2021/01/14 12:41:33;;;;;;;38.78;15.88;;;-0.50;99.90;;;;;;4990631;28;20076;-80
2021/01/14 12:43:59;;;;;;;32.55;15.98;;;-0.40;99.90;;;;;;4991261;28;20034;-79
2021/01/14 12:46:41;;;;;;;46.28;19.80;;;-0.40;99.90;;;;;;4993307;28;20132;-81
2021/01/14 12:49:07;;;;;;;35.95;16.60;;;-0.50;99.90;;;;;;4993354;28;20424;-78
2021/01/14 12:51:34;;;;;;;18.52;8.68;;;-0.40;99.90;;;;;;4992556;28;20025;-78
2021/01/14 12:54:01;;;;;;;22.20;9.30;;;-0.50;99.90;;;;;;4992809;28;20046;-78
2021/01/14 12:56:26;;;;;;;24.10;12.85;;;-0.50;99.90;;;;;;4989607;28;20148;-80
2021/01/14 12:58:52;;;;;;;21.17;10.77;;;-0.60;99.90;;;;;;4992624;28;20540;-80
2021/01/14 13:01:27;;;;;;;17.65;8.57;;;-0.50;99.90;;;;;;4993205;28;20419;-80
2021/01/14 13:03:52;;;;;;;20.27;9.95;;;-0.60;99.90;;;;;;4993043;28;20027;-79
2021/01/14 13:06:26;;;;;;;24.75;12.48;;;-0.50;99.90;;;;;;4992221;28;20031;-81
2021/01/14 13:08:52;;;;;;;29.35;13.57;;;-0.50;99.90;;;;;;4991932;28;20025;-79
2021/01/14 13:11:18;;;;;;;18.25;9.68;;;-0.50;99.90;;;;;;4991351;28;20018;-80
2021/01/14 13:13:44;;;;;;;24.10;10.35;;;-0.50;99.90;;;;;;4991679;28;20050;-80
2021/01/14 13:16:10;;;;;;;31.52;14.73;;;-0.50;99.90;;;;;;5008507;28;20491;-81
2021/01/14 13:18:35;;;;;;;23.73;11.05;;;-0.60;99.90;;;;;;5008349;28;20022;-79
2021/01/14 13:21:01;;;;;;;28.67;13.07;;;-0.50;99.90;;;;;;5010032;28;20022;-80
2021/01/14 13:23:27;;;;;;;29.48;13.65;;;-0.40;99.90;;;;;;5009872;28;20041;-79
2021/01/14 13:25:53;;;;;;;57.58;25.15;;;-0.50;99.90;;;;;;5011896;28;20045;-81
2021/01/14 13:28:18;;;;;;;42.65;17.23;;;-0.50;99.90;;;;;;5013217;28;20030;-80
2021/01/14 13:30:44;;;;;;;43.97;18.65;;;-0.50;99.90;;;;;;5013047;28;20026;-80
2021/01/14 13:33:10;;;;;;;56.97;21.20;;;-0.50;99.90;;;;;;4998344;28;20034;-79
2021/01/14 13:35:35;;;;;;;40.38;16.77;;;-0.60;99.90;;;;;;4992614;28;20413;-81
2021/01/14 13:38:01;;;;;;;45.22;19.60;;;-0.60;99.90;;;;;;5004992;28;20030;-80
2021/01/14 13:40:26;;;;;;;32.10;13.85;;;-0.70;99.90;;;;;;5001387;28;20392;-78
2021/01/14 13:42:52;;;;;;;45.95;19.88;;;-0.70;99.90;;;;;;5001003;28;20085;-79
2021/01/14 13:45:18;;;;;;;55.63;21.75;;;-0.80;99.90;;;;;;5004135;28;20037;-81
2021/01/14 13:47:44;;;;;;;46.00;18.83;;;-0.70;99.90;;;;;;4993257;28;20029;-80
2021/01/14 13:50:10;;;;;;;74.63;37.13;;;-0.70;99.90;;;;;;4993117;28;20108;-81
2021/01/14 13:52:35;;;;;;;32.10;15.30;;;-0.60;99.90;;;;;;5005764;28;20026;-82
2021/01/14 13:55:01;;;;;;;28.65;15.68;;;-0.70;99.90;;;;;;5003909;28;20038;-81
2021/01/14 13:57:27;;;;;;;36.60;18.40;;;-0.80;99.90;;;;;;4997339;28;20040;-82
2021/01/14 13:59:52;;;;;;;30.45;15.43;;;-0.80;99.90;;;;;;5023762;28;20076;-80
2021/01/14 14:02:19;;;;;;;29.83;14.57;;;-0.80;99.90;;;;;;5009410;28;20100;-81
2021/01/14 14:04:45;;;;;;;37.58;16.50;;;-0.90;99.90;;;;;;5000307;28;20027;-80
2021/01/14 14:07:11;;;;;;;54.22;21.15;;;-0.90;99.90;;;;;;4994225;28;20057;-81
2021/01/14 14:09:36;;;;;;;44.15;21.67;;;-0.90;99.90;;;;;;4999882;28;20030;-81
2021/01/14 14:12:02;;;;;;;47.90;20.00;;;-0.90;99.90;;;;;;4999006;28;20018;-80
2021/01/14 14:14:28;;;;;;;37.80;17.75;;;-0.90;99.90;;;;;;4996463;28;20056;-80
2021/01/14 14:16:54;;;;;;;30.55;15.35;;;-1.00;99.90;;;;;;5000398;28;20039;-80
2021/01/14 14:19:20;;;;;;;39.65;18.42;;;-1.00;99.90;;;;;;4986701;28;20030;-79
2021/01/14 14:21:55;;;;;;;52.58;23.52;;;-1.10;99.90;;;;;;4991469;28;20034;-80
2021/01/14 14:24:20;;;;;;;38.58;19.05;;;-1.10;99.90;;;;;;5007233;28;20423;-81
2021/01/14 14:26:46;;;;;;;51.03;22.25;;;-1.10;99.90;;;;;;5003658;28;20081;-81
2021/01/14 14:29:12;;;;;;;114.97;46.60;;;-1.20;99.90;;;;;;4998944;28;20033;-79
2021/01/14 14:31:41;;;;;;;93.60;39.58;;;-1.20;99.90;;;;;;5007168;28;20026;-79
2021/01/14 14:34:08;;;;;;;108.95;43.50;;;-1.30;99.90;;;;;;4992463;28;20089;-78
2021/01/14 14:36:34;;;;;;;83.82;33.22;;;-1.30;99.90;;;;;;4999100;28;20023;-78
2021/01/14 14:39:00;;;;;;;127.75;47.35;;;-1.30;99.90;;;;;;5007461;28;20034;-78
2021/01/14 14:41:26;;;;;;;124.45;45.92;;;-1.30;99.90;;;;;;4998393;28;20492;-80
2021/01/14 14:43:52;;;;;;;74.57;26.83;;;-1.30;99.90;;;;;;5004906;28;20032;-78
2021/01/14 14:46:23;;;;;;;38.10;16.55;;;-1.30;99.90;;;;;;5011244;28;20065;-79
2021/01/14 14:48:50;;;;;;;61.47;24.00;;;-1.40;99.90;;;;;;5010749;28;20033;-78
2021/01/14 14:51:17;;;;;;;45.65;19.88;;;-1.40;99.90;;;;;;5011356;28;20072;-79
2021/01/14 14:53:44;;;;;;;58.10;21.30;;;-1.40;99.90;;;;;;5009063;28;20065;-78
2021/01/14 14:56:11;;;;;;;54.92;23.77;;;-1.40;99.90;;;;;;5011017;28;20030;-79
2021/01/14 14:58:37;;;;;;;48.65;20.35;;;-1.40;99.90;;;;;;5010214;28;20072;-78
2021/01/14 15:01:04;;;;;;;51.95;19.80;;;-1.50;99.90;;;;;;5012701;28;20022;-79
2021/01/14 15:03:30;;;;;;;50.78;19.85;;;-1.50;99.90;;;;;;4989578;28;20507;-78
2021/01/14 15:05:56;;;;;;;55.92;23.77;;;-1.50;99.90;;;;;;4991172;28;20026;-78
2021/01/14 15:08:22;;;;;;;46.03;19.60;;;-1.50;99.90;;;;;;4992618;28;20021;-79
2021/01/14 15:10:48;;;;;;;63.88;25.67;;;-1.50;99.90;;;;;;4993250;28;20026;-79
2021/01/14 15:13:14;;;;;;;42.03;17.20;;;-1.50;99.90;;;;;;4997898;28;20034;-78
2021/01/14 15:15:40;;;;;;;42.60;19.10;;;-1.50;99.90;;;;;;4993307;28;20022;-78
2021/01/14 15:18:05;;;;;;;44.15;19.30;;;-1.50;99.90;;;;;;4992996;28;20034;-79
2021/01/14 15:20:31;;;;;;;41.80;18.20;;;-1.50;99.90;;;;;;4992791;28;20022;-78
2021/01/14 15:22:57;;;;;;;50.08;19.98;;;-1.50;99.90;;;;;;4992953;28;20472;-78
2021/01/14 15:25:23;;;;;;;46.83;21.13;;;-1.60;99.90;;;;;;4993004;28;20476;-79
2021/01/14 15:27:48;;;;;;;36.63;17.42;;;-1.60;99.90;;;;;;4992737;28;20118;-78